sensor_id;sensor_type;location;lat;lon;timestamp;P1;P2;P0
41382;PMS5003;27971;53.902;9.118;2023-02-11T00:05:05;5.07;3.97;
41382;PMS5003;27971;53.902;9.118;2023-02-11T00:07:08;6.07;4.9;
41382;PMS5003;27971;53.902;9.118;2023-02-11T00:09:11;5.46;4.87;
41382;PMS5003;27971;53.902;9.118;2023-02-11T00:11:15;5.26;4.44;
41382;PMS5003;27971;53.902;9.118;2023-02-11T00:13:16;5.5;4.25;
41382;PMS5003;27971;53.902;9.118;2023-02-11T00:15:18;5.43;4.93;
41382;PMS5003;27971;53.902;9.118;2023-02-11T00:17:21;5.22;4.01;
41382;PMS5003;27971;53.902;9.118;2023-02-11T00:19:23;5.07;4.64;
41382;PMS5003;27971;53.902;9.118;2023-02-11T00:21:27;5.46;5.09;
41382;PMS5003;27971;53.902;9.118;2023-02-11T00:23:30;4.94;4.21;
41382;PMS5003;27971;53.902;9.118;2023-02-11T00:25:32;5.32;4.21;
41382;PMS5003;27971;53.902;9.118;2023-02-11T00:27:35;7.21;4.42;
41382;PMS5003;27971;53.902;9.118;2023-02-11T00:29:37;7.49;5.34;
41382;PMS5003;27971;53.902;9.118;2023-02-11T00:31:40;5.42;4.77;
41382;PMS5003;27971;53.902;9.118;2023-02-11T00:33:43;5.69;5.01;
41382;PMS5003;27971;53.902;9.118;2023-02-11T00:35:46;5.93;5.38;
41382;PMS5003;27971;53.902;9.118;2023-02-11T00:37:51;5.96;4.88;
41382;PMS5003;27971;53.902;9.118;2023-02-11T00:39:52;4.83;4.19;
41382;PMS5003;27971;53.902;9.118;2023-02-11T00:41:54;5.38;4.28;
41382;PMS5003;27971;53.902;9.118;2023-02-11T00:43:56;5.34;4.46;
41382;PMS5003;27971;53.902;9.118;2023-02-11T00:46:00;5.03;4.63;
41382;PMS5003;27971;53.902;9.118;2023-02-11T00:48:02;5.2;4.8;
41382;PMS5003;27971;53.902;9.118;2023-02-11T00:50:05;4.48;4.48;
41382;PMS5003;27971;53.902;9.118;2023-02-11T00:52:07;4.41;3.69;
41382;PMS5003;27971;53.902;9.118;2023-02-11T00:54:10;5.16;4.27;
41382;PMS5003;27971;53.902;9.118;2023-02-11T00:56:12;4.62;3.93;
41382;PMS5003;27971;53.902;9.118;2023-02-11T00:58:14;6.51;4.58;
41382;PMS5003;27971;53.902;9.118;2023-02-11T01:00:17;5.43;4.96;
41382;PMS5003;27971;53.902;9.118;2023-02-11T01:02:19;5.13;3.68;
41382;PMS5003;27971;53.902;9.118;2023-02-11T01:04:21;5.26;4.19;
41382;PMS5003;27971;53.902;9.118;2023-02-11T01:06:24;5.68;5.07;
41382;PMS5003;27971;53.902;9.118;2023-02-11T01:08:26;5.6;4.24;
41382;PMS5003;27971;53.902;9.118;2023-02-11T01:10:29;4.22;3.97;
41382;PMS5003;27971;53.902;9.118;2023-02-11T01:12:32;6.98;5.09;
41382;PMS5003;27971;53.902;9.118;2023-02-11T01:14:34;5.01;4.47;
41382;PMS5003;27971;53.902;9.118;2023-02-11T01:16:36;6.88;5.03;
41382;PMS5003;27971;53.902;9.118;2023-02-11T01:18:39;6.26;4.88;
41382;PMS5003;27971;53.902;9.118;2023-02-11T01:20:42;6.18;5.52;
41382;PMS5003;27971;53.902;9.118;2023-02-11T01:22:44;4.69;4.49;
41382;PMS5003;27971;53.902;9.118;2023-02-11T01:24:47;5.27;4.27;
41382;PMS5003;27971;53.902;9.118;2023-02-11T01:26:49;5.49;4.2;
41382;PMS5003;27971;53.902;9.118;2023-02-11T01:28:51;5.23;4.78;
41382;PMS5003;27971;53.902;9.118;2023-02-11T01:30:54;5.97;4.53;
41382;PMS5003;27971;53.902;9.118;2023-02-11T01:32:57;5.18;3.93;
41382;PMS5003;27971;53.902;9.118;2023-02-11T01:34:59;5.18;4.24;
41382;PMS5003;27971;53.902;9.118;2023-02-11T01:37:02;5.83;4.77;
41382;PMS5003;27971;53.902;9.118;2023-02-11T01:39:04;4.54;4.33;
41382;PMS5003;27971;53.902;9.118;2023-02-11T01:41:08;6.0;5.31;
41382;PMS5003;27971;53.902;9.118;2023-02-11T01:43:09;5.57;5.09;
41382;PMS5003;27971;53.902;9.118;2023-02-11T01:46:19;6.31;5.19;
41382;PMS5003;27971;53.902;9.118;2023-02-11T01:47:14;6.43;6.03;
41382;PMS5003;27971;53.902;9.118;2023-02-11T01:49:17;7.28;5.8;
41382;PMS5003;27971;53.902;9.118;2023-02-11T01:51:20;5.67;4.85;
41382;PMS5003;27971;53.902;9.118;2023-02-11T01:53:21;5.52;5.16;
41382;PMS5003;27971;53.902;9.118;2023-02-11T01:55:24;6.04;5.11;
41382;PMS5003;27971;53.902;9.118;2023-02-11T01:57:27;5.57;5.09;
41382;PMS5003;27971;53.902;9.118;2023-02-11T01:59:33;5.18;4.76;
41382;PMS5003;27971;53.902;9.118;2023-02-11T02:01:33;6.67;6.28;
41382;PMS5003;27971;53.902;9.118;2023-02-11T02:03:36;4.55;3.95;
41382;PMS5003;27971;53.902;9.118;2023-02-11T02:05:39;5.75;5.58;
41382;PMS5003;27971;53.902;9.118;2023-02-11T02:07:41;5.78;4.96;
41382;PMS5003;27971;53.902;9.118;2023-02-11T02:09:45;4.59;3.73;
41382;PMS5003;27971;53.902;9.118;2023-02-11T02:11:47;5.08;4.12;
41382;PMS5003;27971;53.902;9.118;2023-02-11T02:13:50;5.87;4.73;
41382;PMS5003;27971;53.902;9.118;2023-02-11T02:15:53;5.28;4.73;
41382;PMS5003;27971;53.902;9.118;2023-02-11T02:17:56;5.47;4.64;
41382;PMS5003;27971;53.902;9.118;2023-02-11T02:20:02;4.54;4.24;
41382;PMS5003;27971;53.902;9.118;2023-02-11T02:22:07;5.32;5.32;
41382;PMS5003;27971;53.902;9.118;2023-02-11T02:24:38;6.73;4.92;
41382;PMS5003;27971;53.902;9.118;2023-02-11T02:28:16;4.0;3.5;
41382;PMS5003;27971;53.902;9.118;2023-02-11T02:32:28;5.76;4.32;
41382;PMS5003;27971;53.902;9.118;2023-02-11T02:32:49;7.0;6.0;
41382;PMS5003;27971;53.902;9.118;2023-02-11T02:34:52;5.07;4.88;
41382;PMS5003;27971;53.902;9.118;2023-02-11T02:36:54;5.8;4.6;
41382;PMS5003;27971;53.902;9.118;2023-02-11T02:39:00;4.01;3.89;
41382;PMS5003;27971;53.902;9.118;2023-02-11T02:41:00;5.33;3.88;
41382;PMS5003;27971;53.902;9.118;2023-02-11T02:43:01;4.87;3.9;
41382;PMS5003;27971;53.902;9.118;2023-02-11T02:45:06;5.46;4.66;
41382;PMS5003;27971;53.902;9.118;2023-02-11T02:47:08;5.2;4.8;
41382;PMS5003;27971;53.902;9.118;2023-02-11T02:49:11;5.88;4.39;
41382;PMS5003;27971;53.902;9.118;2023-02-11T02:51:16;5.06;4.78;
41382;PMS5003;27971;53.902;9.118;2023-02-11T02:53:17;3.78;3.33;
41382;PMS5003;27971;53.902;9.118;2023-02-11T02:55:22;5.2;4.65;
41382;PMS5003;27971;53.902;9.118;2023-02-11T02:57:27;4.53;3.6;
41382;PMS5003;27971;53.902;9.118;2023-02-11T02:59:27;4.76;4.58;
41382;PMS5003;27971;53.902;9.118;2023-02-11T03:01:30;4.54;3.91;
41382;PMS5003;27971;53.902;9.118;2023-02-11T03:03:34;4.64;4.14;
41382;PMS5003;27971;53.902;9.118;2023-02-11T03:05:36;4.98;4.69;
41382;PMS5003;27971;53.902;9.118;2023-02-11T03:07:39;5.28;4.07;
41382;PMS5003;27971;53.902;9.118;2023-02-11T03:09:40;4.49;4.1;
41382;PMS5003;27971;53.902;9.118;2023-02-11T03:11:42;5.45;5.14;
41382;PMS5003;27971;53.902;9.118;2023-02-11T03:13:46;4.96;4.31;
41382;PMS5003;27971;53.902;9.118;2023-02-11T03:15:49;4.55;4.2;
41382;PMS5003;27971;53.902;9.118;2023-02-11T03:17:52;4.76;4.14;
41382;PMS5003;27971;53.902;9.118;2023-02-11T03:19:54;4.5;3.61;
41382;PMS5003;27971;53.902;9.118;2023-02-11T03:21:58;4.35;3.74;
41382;PMS5003;27971;53.902;9.118;2023-02-11T03:24:02;5.24;4.23;
41382;PMS5003;27971;53.902;9.118;2023-02-11T03:26:06;5.14;4.4;
41382;PMS5003;27971;53.902;9.118;2023-02-11T03:28:08;4.75;4.64;
41382;PMS5003;27971;53.902;9.118;2023-02-11T03:30:10;5.08;3.82;
41382;PMS5003;27971;53.902;9.118;2023-02-11T03:32:13;5.79;4.71;
41382;PMS5003;27971;53.902;9.118;2023-02-11T03:34:16;5.05;4.12;
41382;PMS5003;27971;53.902;9.118;2023-02-11T03:36:19;5.49;4.76;
41382;PMS5003;27971;53.902;9.118;2023-02-11T03:38:22;5.39;4.18;
41382;PMS5003;27971;53.902;9.118;2023-02-11T03:40:24;4.94;4.49;
41382;PMS5003;27971;53.902;9.118;2023-02-11T03:42:27;4.8;3.84;
41382;PMS5003;27971;53.902;9.118;2023-02-11T03:44:30;5.01;4.26;
41382;PMS5003;27971;53.902;9.118;2023-02-11T03:46:31;5.31;4.6;
41382;PMS5003;27971;53.902;9.118;2023-02-11T03:48:35;5.48;4.29;
41382;PMS5003;27971;53.902;9.118;2023-02-11T03:50:36;4.84;4.23;
41382;PMS5003;27971;53.902;9.118;2023-02-11T03:52:39;5.8;4.33;
41382;PMS5003;27971;53.902;9.118;2023-02-11T03:54:41;4.88;3.49;
41382;PMS5003;27971;53.902;9.118;2023-02-11T03:56:44;5.17;4.45;
41382;PMS5003;27971;53.902;9.118;2023-02-11T03:58:47;5.72;4.44;
41382;PMS5003;27971;53.902;9.118;2023-02-11T04:00:49;4.83;4.37;
41382;PMS5003;27971;53.902;9.118;2023-02-11T04:02:52;4.59;4.42;
41382;PMS5003;27971;53.902;9.118;2023-02-11T04:04:55;5.37;4.9;
41382;PMS5003;27971;53.902;9.118;2023-02-11T04:06:58;4.66;4.52;
41382;PMS5003;27971;53.902;9.118;2023-02-11T04:09:00;4.63;3.73;
41382;PMS5003;27971;53.902;9.118;2023-02-11T04:11:03;4.17;3.7;
41382;PMS5003;27971;53.902;9.118;2023-02-11T04:13:06;4.29;3.82;
41382;PMS5003;27971;53.902;9.118;2023-02-11T04:15:08;5.23;4.4;
41382;PMS5003;27971;53.902;9.118;2023-02-11T04:17:11;5.26;4.79;
41382;PMS5003;27971;53.902;9.118;2023-02-11T04:19:13;4.06;4.02;
41382;PMS5003;27971;53.902;9.118;2023-02-11T04:21:16;4.78;4.24;
41382;PMS5003;27971;53.902;9.118;2023-02-11T04:23:18;4.87;4.02;
41382;PMS5003;27971;53.902;9.118;2023-02-11T04:25:21;5.1;3.52;
41382;PMS5003;27971;53.902;9.118;2023-02-11T04:27:23;4.51;4.04;
41382;PMS5003;27971;53.902;9.118;2023-02-11T04:29:26;5.01;4.52;
41382;PMS5003;27971;53.902;9.118;2023-02-11T04:31:28;4.4;3.09;
41382;PMS5003;27971;53.902;9.118;2023-02-11T04:33:31;5.1;4.17;
41382;PMS5003;27971;53.902;9.118;2023-02-11T04:35:33;4.84;4.2;
41382;PMS5003;27971;53.902;9.118;2023-02-11T04:37:36;4.67;3.67;
41382;PMS5003;27971;53.902;9.118;2023-02-11T04:39:38;4.61;4.24;
41382;PMS5003;27971;53.902;9.118;2023-02-11T04:41:41;5.63;4.64;
41382;PMS5003;27971;53.902;9.118;2023-02-11T04:43:44;4.9;3.93;
41382;PMS5003;27971;53.902;9.118;2023-02-11T04:45:46;4.47;3.56;
41382;PMS5003;27971;53.902;9.118;2023-02-11T04:47:49;4.04;3.63;
41382;PMS5003;27971;53.902;9.118;2023-02-11T04:49:51;5.89;5.37;
41382;PMS5003;27971;53.902;9.118;2023-02-11T04:51:54;4.09;3.65;
41382;PMS5003;27971;53.902;9.118;2023-02-11T04:53:57;5.11;4.36;
41382;PMS5003;27971;53.902;9.118;2023-02-11T04:56:00;4.7;3.93;
41382;PMS5003;27971;53.902;9.118;2023-02-11T04:58:02;4.2;3.9;
41382;PMS5003;27971;53.902;9.118;2023-02-11T05:00:05;4.13;3.33;
41382;PMS5003;27971;53.902;9.118;2023-02-11T05:02:07;3.93;3.71;
41382;PMS5003;27971;53.902;9.118;2023-02-11T05:04:10;4.3;3.7;
41382;PMS5003;27971;53.902;9.118;2023-02-11T05:06:12;5.41;4.33;
41382;PMS5003;27971;53.902;9.118;2023-02-11T05:08:15;5.81;5.01;
41382;PMS5003;27971;53.902;9.118;2023-02-11T05:10:18;5.88;4.6;
41382;PMS5003;27971;53.902;9.118;2023-02-11T05:12:21;4.37;3.89;
41382;PMS5003;27971;53.902;9.118;2023-02-11T05:14:24;6.08;4.21;
41382;PMS5003;27971;53.902;9.118;2023-02-11T05:16:26;5.19;3.96;
41382;PMS5003;27971;53.902;9.118;2023-02-11T05:18:28;3.62;3.29;
41382;PMS5003;27971;53.902;9.118;2023-02-11T05:20:31;4.24;3.69;
41382;PMS5003;27971;53.902;9.118;2023-02-11T05:22:34;4.07;3.47;
41382;PMS5003;27971;53.902;9.118;2023-02-11T05:24:37;4.13;3.91;
41382;PMS5003;27971;53.902;9.118;2023-02-11T05:26:40;3.61;3.0;
41382;PMS5003;27971;53.902;9.118;2023-02-11T05:28:42;4.73;4.28;
41382;PMS5003;27971;53.902;9.118;2023-02-11T05:30:45;4.66;4.01;
41382;PMS5003;27971;53.902;9.118;2023-02-11T05:32:47;4.0;3.62;
41382;PMS5003;27971;53.902;9.118;2023-02-11T05:34:50;5.0;3.81;
41382;PMS5003;27971;53.902;9.118;2023-02-11T05:36:53;4.13;3.56;
41382;PMS5003;27971;53.902;9.118;2023-02-11T05:38:55;6.24;5.37;
41382;PMS5003;27971;53.902;9.118;2023-02-11T05:40:58;4.53;3.72;
41382;PMS5003;27971;53.902;9.118;2023-02-11T05:43:00;4.36;4.11;
41382;PMS5003;27971;53.902;9.118;2023-02-11T05:45:04;4.64;3.81;
41382;PMS5003;27971;53.902;9.118;2023-02-11T05:47:05;4.17;3.76;
41382;PMS5003;27971;53.902;9.118;2023-02-11T05:49:08;3.52;3.26;
41382;PMS5003;27971;53.902;9.118;2023-02-11T05:51:10;3.9;3.6;
41382;PMS5003;27971;53.902;9.118;2023-02-11T05:53:13;5.04;4.04;
41382;PMS5003;27971;53.902;9.118;2023-02-11T05:55:16;5.18;4.37;
41382;PMS5003;27971;53.902;9.118;2023-02-11T05:57:18;5.47;5.08;
41382;PMS5003;27971;53.902;9.118;2023-02-11T05:59:21;5.34;3.68;
41382;PMS5003;27971;53.902;9.118;2023-02-11T06:01:23;4.68;3.66;
41382;PMS5003;27971;53.902;9.118;2023-02-11T06:03:26;6.03;4.59;
41382;PMS5003;27971;53.902;9.118;2023-02-11T06:05:29;4.46;3.24;
41382;PMS5003;27971;53.902;9.118;2023-02-11T06:07:31;5.12;4.09;
41382;PMS5003;27971;53.902;9.118;2023-02-11T06:09:34;4.22;3.46;
41382;PMS5003;27971;53.902;9.118;2023-02-11T06:11:37;6.21;4.91;
41382;PMS5003;27971;53.902;9.118;2023-02-11T06:13:39;3.97;3.56;
41382;PMS5003;27971;53.902;9.118;2023-02-11T06:15:42;5.19;4.68;
41382;PMS5003;27971;53.902;9.118;2023-02-11T06:17:45;4.28;3.5;
41382;PMS5003;27971;53.902;9.118;2023-02-11T06:19:47;5.66;5.04;
41382;PMS5003;27971;53.902;9.118;2023-02-11T06:21:50;5.89;5.57;
41382;PMS5003;27971;53.902;9.118;2023-02-11T06:23:52;6.59;5.3;
41382;PMS5003;27971;53.902;9.118;2023-02-11T06:26:00;5.77;5.14;
41382;PMS5003;27971;53.902;9.118;2023-02-11T06:27:58;6.22;5.63;
41382;PMS5003;27971;53.902;9.118;2023-02-11T06:30:00;5.18;4.88;
41382;PMS5003;27971;53.902;9.118;2023-02-11T06:32:02;5.9;5.27;
41382;PMS5003;27971;53.902;9.118;2023-02-11T06:34:05;5.18;4.73;
41382;PMS5003;27971;53.902;9.118;2023-02-11T06:36:11;5.2;4.0;
41382;PMS5003;27971;53.902;9.118;2023-02-11T06:38:12;5.88;3.99;
41382;PMS5003;27971;53.902;9.118;2023-02-11T06:40:14;6.6;5.17;
41382;PMS5003;27971;53.902;9.118;2023-02-11T06:42:17;6.22;5.13;
41382;PMS5003;27971;53.902;9.118;2023-02-11T06:44:19;5.11;4.58;
41382;PMS5003;27971;53.902;9.118;2023-02-11T06:46:22;5.41;4.34;
41382;PMS5003;27971;53.902;9.118;2023-02-11T06:48:24;4.89;4.4;
41382;PMS5003;27971;53.902;9.118;2023-02-11T06:50:27;4.97;4.16;
41382;PMS5003;27971;53.902;9.118;2023-02-11T06:52:29;3.94;3.76;
41382;PMS5003;27971;53.902;9.118;2023-02-11T06:54:33;4.69;3.92;
41382;PMS5003;27971;53.902;9.118;2023-02-11T06:56:37;4.81;4.02;
41382;PMS5003;27971;53.902;9.118;2023-02-11T06:58:38;4.89;4.25;
41382;PMS5003;27971;53.902;9.118;2023-02-11T07:00:41;5.27;3.87;
41382;PMS5003;27971;53.902;9.118;2023-02-11T07:02:43;4.1;4.1;
41382;PMS5003;27971;53.902;9.118;2023-02-11T07:04:45;4.68;3.8;
41382;PMS5003;27971;53.902;9.118;2023-02-11T07:06:48;4.28;3.84;
41382;PMS5003;27971;53.902;9.118;2023-02-11T07:08:51;4.13;3.6;
41382;PMS5003;27971;53.902;9.118;2023-02-11T07:10:53;3.97;3.63;
41382;PMS5003;27971;53.902;9.118;2023-02-11T07:12:56;6.1;4.43;
41382;PMS5003;27971;53.902;9.118;2023-02-11T07:14:58;5.53;4.36;
41382;PMS5003;27971;53.902;9.118;2023-02-11T07:17:01;6.31;4.11;
41382;PMS5003;27971;53.902;9.118;2023-02-11T07:19:03;4.33;3.67;
41382;PMS5003;27971;53.902;9.118;2023-02-11T07:21:07;4.51;4.41;
41382;PMS5003;27971;53.902;9.118;2023-02-11T07:23:09;4.63;3.8;
41382;PMS5003;27971;53.902;9.118;2023-02-11T07:25:12;4.13;3.49;
41382;PMS5003;27971;53.902;9.118;2023-02-11T07:27:15;4.57;4.3;
41382;PMS5003;27971;53.902;9.118;2023-02-11T07:29:17;4.08;3.81;
41382;PMS5003;27971;53.902;9.118;2023-02-11T07:31:21;4.36;4.11;
41382;PMS5003;27971;53.902;9.118;2023-02-11T07:33:22;2.92;2.72;
41382;PMS5003;27971;53.902;9.118;2023-02-11T07:35:25;4.86;4.39;
41382;PMS5003;27971;53.902;9.118;2023-02-11T07:37:27;3.74;3.71;
41382;PMS5003;27971;53.902;9.118;2023-02-11T07:39:30;6.02;3.96;
41382;PMS5003;27971;53.902;9.118;2023-02-11T07:41:32;4.57;3.97;
41382;PMS5003;27971;53.902;9.118;2023-02-11T07:43:35;5.23;4.43;
41382;PMS5003;27971;53.902;9.118;2023-02-11T07:45:37;4.94;3.93;
41382;PMS5003;27971;53.902;9.118;2023-02-11T07:47:40;5.86;4.66;
41382;PMS5003;27971;53.902;9.118;2023-02-11T07:49:42;5.51;4.33;
41382;PMS5003;27971;53.902;9.118;2023-02-11T07:51:44;6.03;5.09;
41382;PMS5003;27971;53.902;9.118;2023-02-11T07:53:47;5.79;4.71;
41382;PMS5003;27971;53.902;9.118;2023-02-11T07:55:49;6.45;4.76;
41382;PMS5003;27971;53.902;9.118;2023-02-11T07:57:51;5.46;4.73;
41382;PMS5003;27971;53.902;9.118;2023-02-11T07:59:54;5.08;4.34;
41382;PMS5003;27971;53.902;9.118;2023-02-11T08:01:56;5.04;3.7;
41382;PMS5003;27971;53.902;9.118;2023-02-11T08:03:59;4.91;4.68;
41382;PMS5003;27971;53.902;9.118;2023-02-11T08:06:02;5.34;4.19;
41382;PMS5003;27971;53.902;9.118;2023-02-11T08:08:04;6.53;4.82;
41382;PMS5003;27971;53.902;9.118;2023-02-11T08:10:07;4.13;3.52;
41382;PMS5003;27971;53.902;9.118;2023-02-11T08:12:09;4.81;4.17;
41382;PMS5003;27971;53.902;9.118;2023-02-11T08:14:12;3.72;3.72;
41382;PMS5003;27971;53.902;9.118;2023-02-11T08:16:17;6.23;3.72;
41382;PMS5003;27971;53.902;9.118;2023-02-11T08:18:18;4.52;3.7;
41382;PMS5003;27971;53.902;9.118;2023-02-11T08:20:20;3.88;3.88;
41382;PMS5003;27971;53.902;9.118;2023-02-11T08:22:22;5.34;4.2;
41382;PMS5003;27971;53.902;9.118;2023-02-11T08:24:25;3.93;2.98;
41382;PMS5003;27971;53.902;9.118;2023-02-11T08:26:28;4.98;4.09;
41382;PMS5003;27971;53.902;9.118;2023-02-11T08:28:30;5.53;4.62;
41382;PMS5003;27971;53.902;9.118;2023-02-11T08:30:33;4.49;3.52;
41382;PMS5003;27971;53.902;9.118;2023-02-11T08:32:35;4.76;4.18;
41382;PMS5003;27971;53.902;9.118;2023-02-11T08:34:38;3.99;3.13;
41382;PMS5003;27971;53.902;9.118;2023-02-11T08:36:41;4.49;3.44;
41382;PMS5003;27971;53.902;9.118;2023-02-11T08:38:44;3.49;3.48;
41382;PMS5003;27971;53.902;9.118;2023-02-11T08:40:47;4.19;3.87;
41382;PMS5003;27971;53.902;9.118;2023-02-11T08:42:49;4.38;3.32;
41382;PMS5003;27971;53.902;9.118;2023-02-11T08:44:51;5.58;3.94;
41382;PMS5003;27971;53.902;9.118;2023-02-11T08:46:54;4.64;4.1;
41382;PMS5003;27971;53.902;9.118;2023-02-11T08:48:56;4.81;4.27;
41382;PMS5003;27971;53.902;9.118;2023-02-11T08:50:59;5.3;4.07;
41382;PMS5003;27971;53.902;9.118;2023-02-11T08:53:02;6.07;4.08;
41382;PMS5003;27971;53.902;9.118;2023-02-11T08:55:05;5.16;3.76;
41382;PMS5003;27971;53.902;9.118;2023-02-11T08:57:08;4.13;3.39;
41382;PMS5003;27971;53.902;9.118;2023-02-11T08:59:11;4.68;3.73;
41382;PMS5003;27971;53.902;9.118;2023-02-11T09:01:14;5.56;3.88;
41382;PMS5003;27971;53.902;9.118;2023-02-11T09:03:16;4.78;4.22;
41382;PMS5003;27971;53.902;9.118;2023-02-11T09:05:18;4.62;3.54;
41382;PMS5003;27971;53.902;9.118;2023-02-11T09:07:21;6.56;4.69;
41382;PMS5003;27971;53.902;9.118;2023-02-11T09:09:24;6.2;5.15;
41382;PMS5003;27971;53.902;9.118;2023-02-11T09:11:27;4.47;4.03;
41382;PMS5003;27971;53.902;9.118;2023-02-11T09:13:29;5.0;3.25;
41382;PMS5003;27971;53.902;9.118;2023-02-11T09:15:31;4.46;3.86;
41382;PMS5003;27971;53.902;9.118;2023-02-11T09:17:33;4.46;3.97;
41382;PMS5003;27971;53.902;9.118;2023-02-11T09:19:36;5.4;4.07;
41382;PMS5003;27971;53.902;9.118;2023-02-11T09:21:38;4.14;3.61;
41382;PMS5003;27971;53.902;9.118;2023-02-11T09:23:41;4.37;3.53;
41382;PMS5003;27971;53.902;9.118;2023-02-11T09:25:44;3.94;3.42;
41382;PMS5003;27971;53.902;9.118;2023-02-11T09:27:46;4.64;3.24;
41382;PMS5003;27971;53.902;9.118;2023-02-11T09:29:49;4.76;3.62;
41382;PMS5003;27971;53.902;9.118;2023-02-11T09:31:51;5.43;4.27;
41382;PMS5003;27971;53.902;9.118;2023-02-11T09:33:54;5.28;3.78;
41382;PMS5003;27971;53.902;9.118;2023-02-11T09:35:59;4.52;3.66;
41382;PMS5003;27971;53.902;9.118;2023-02-11T09:37:59;3.08;2.92;
41382;PMS5003;27971;53.902;9.118;2023-02-11T09:40:02;4.63;3.93;
41382;PMS5003;27971;53.902;9.118;2023-02-11T09:42:07;3.42;2.92;
41382;PMS5003;27971;53.902;9.118;2023-02-11T09:44:09;4.11;3.4;
41382;PMS5003;27971;53.902;9.118;2023-02-11T09:46:10;3.67;2.98;
41382;PMS5003;27971;53.902;9.118;2023-02-11T09:48:13;5.17;3.97;
41382;PMS5003;27971;53.902;9.118;2023-02-11T09:50:17;4.66;4.39;
41382;PMS5003;27971;53.902;9.118;2023-02-11T09:52:22;4.08;3.52;
41382;PMS5003;27971;53.902;9.118;2023-02-11T09:54:25;4.3;3.1;
41382;PMS5003;27971;53.902;9.118;2023-02-11T09:56:25;5.93;4.08;
41382;PMS5003;27971;53.902;9.118;2023-02-11T09:58:28;4.27;3.91;
41382;PMS5003;27971;53.902;9.118;2023-02-11T10:00:32;4.13;2.53;
41382;PMS5003;27971;53.902;9.118;2023-02-11T10:02:35;3.51;3.4;
41382;PMS5003;27971;53.902;9.118;2023-02-11T10:04:40;4.44;3.55;
41382;PMS5003;27971;53.902;9.118;2023-02-11T10:06:40;2.42;2.23;
41382;PMS5003;27971;53.902;9.118;2023-02-11T10:08:45;4.55;3.66;
41382;PMS5003;27971;53.902;9.118;2023-02-11T10:10:46;3.67;3.37;
41382;PMS5003;27971;53.902;9.118;2023-02-11T10:12:53;3.6;2.67;
41382;PMS5003;27971;53.902;9.118;2023-02-11T10:15:01;5.16;3.63;
41382;PMS5003;27971;53.902;9.118;2023-02-11T10:16:56;4.85;4.0;
41382;PMS5003;27971;53.902;9.118;2023-02-11T10:19:00;3.49;3.3;
41382;PMS5003;27971;53.902;9.118;2023-02-11T10:21:02;4.22;3.71;
41382;PMS5003;27971;53.902;9.118;2023-02-11T10:23:06;4.23;3.47;
41382;PMS5003;27971;53.902;9.118;2023-02-11T10:25:07;3.6;2.94;
41382;PMS5003;27971;53.902;9.118;2023-02-11T10:27:10;3.98;3.26;
41382;PMS5003;27971;53.902;9.118;2023-02-11T10:29:13;4.48;3.58;
41382;PMS5003;27971;53.902;9.118;2023-02-11T10:31:14;3.38;2.54;
41382;PMS5003;27971;53.902;9.118;2023-02-11T10:33:17;3.38;3.14;
41382;PMS5003;27971;53.902;9.118;2023-02-11T10:35:19;3.31;2.81;
41382;PMS5003;27971;53.902;9.118;2023-02-11T10:37:20;4.6;3.4;
41382;PMS5003;27971;53.902;9.118;2023-02-11T10:39:24;3.82;3.72;
41382;PMS5003;27971;53.902;9.118;2023-02-11T10:41:27;4.91;4.03;
41382;PMS5003;27971;53.902;9.118;2023-02-11T10:43:29;4.99;4.26;
41382;PMS5003;27971;53.902;9.118;2023-02-11T10:45:32;3.2;2.89;
41382;PMS5003;27971;53.902;9.118;2023-02-11T10:47:35;5.75;4.35;
41382;PMS5003;27971;53.902;9.118;2023-02-11T10:49:38;4.75;3.61;
41382;PMS5003;27971;53.902;9.118;2023-02-11T10:51:41;4.24;3.69;
41382;PMS5003;27971;53.902;9.118;2023-02-11T10:53:44;4.73;4.13;
41382;PMS5003;27971;53.902;9.118;2023-02-11T10:55:49;7.83;5.23;
41382;PMS5003;27971;53.902;9.118;2023-02-11T10:57:52;6.52;5.79;
41382;PMS5003;27971;53.902;9.118;2023-02-11T10:59:56;5.97;4.86;
41382;PMS5003;27971;53.902;9.118;2023-02-11T11:01:57;11.28;9.08;
41382;PMS5003;27971;53.902;9.118;2023-02-11T11:03:59;11.03;8.85;
41382;PMS5003;27971;53.902;9.118;2023-02-11T11:06:03;11.23;8.89;
41382;PMS5003;27971;53.902;9.118;2023-02-11T11:08:05;10.51;8.53;
41382;PMS5003;27971;53.902;9.118;2023-02-11T11:10:24;10.48;8.24;
41382;PMS5003;27971;53.902;9.118;2023-02-11T11:12:22;11.47;9.12;
41382;PMS5003;27971;53.902;9.118;2023-02-11T11:14:17;10.9;7.38;
41382;PMS5003;27971;53.902;9.118;2023-02-11T11:16:20;13.46;9.78;
41382;PMS5003;27971;53.902;9.118;2023-02-11T11:18:20;12.76;9.89;
41382;PMS5003;27971;53.902;9.118;2023-02-11T11:20:24;11.26;8.73;
41382;PMS5003;27971;53.902;9.118;2023-02-11T11:22:25;12.51;10.09;
41382;PMS5003;27971;53.902;9.118;2023-02-11T11:24:28;11.72;9.77;
41382;PMS5003;27971;53.902;9.118;2023-02-11T11:26:38;13.01;10.58;
41382;PMS5003;27971;53.902;9.118;2023-02-11T11:28:35;12.69;9.98;
41382;PMS5003;27971;53.902;9.118;2023-02-11T11:30:38;12.96;9.36;
41382;PMS5003;27971;53.902;9.118;2023-02-11T11:32:39;11.55;9.83;
41382;PMS5003;27971;53.902;9.118;2023-02-11T11:34:42;11.72;8.21;
41382;PMS5003;27971;53.902;9.118;2023-02-11T11:36:44;12.19;9.59;
41382;PMS5003;27971;53.902;9.118;2023-02-11T11:38:48;12.46;9.69;
41382;PMS5003;27971;53.902;9.118;2023-02-11T11:41:11;10.3;8.31;
41382;PMS5003;27971;53.902;9.118;2023-02-11T11:43:01;11.18;8.85;
41382;PMS5003;27971;53.902;9.118;2023-02-11T11:44:57;14.41;10.84;
41382;PMS5003;27971;53.902;9.118;2023-02-11T11:47:33;12.15;9.48;
41382;PMS5003;27971;53.902;9.118;2023-02-11T11:49:08;13.64;11.26;
41382;PMS5003;27971;53.902;9.118;2023-02-11T11:51:08;14.84;12.11;
41382;PMS5003;27971;53.902;9.118;2023-02-11T11:53:10;14.46;13.28;
41382;PMS5003;27971;53.902;9.118;2023-02-11T11:55:13;17.12;15.12;
41382;PMS5003;27971;53.902;9.118;2023-02-11T11:57:16;15.84;13.74;
41382;PMS5003;27971;53.902;9.118;2023-02-11T11:59:18;12.15;11.03;
41382;PMS5003;27971;53.902;9.118;2023-02-11T12:01:25;13.8;10.18;
41382;PMS5003;27971;53.902;9.118;2023-02-11T12:03:29;10.09;9.11;
41382;PMS5003;27971;53.902;9.118;2023-02-11T12:05:29;10.99;10.04;
41382;PMS5003;27971;53.902;9.118;2023-02-11T12:07:33;11.88;10.59;
41382;PMS5003;27971;53.902;9.118;2023-02-11T12:09:34;11.25;8.7;
41382;PMS5003;27971;53.902;9.118;2023-02-11T12:11:37;10.22;9.0;
41382;PMS5003;27971;53.902;9.118;2023-02-11T12:13:40;9.14;8.41;
41382;PMS5003;27971;53.902;9.118;2023-02-11T12:15:42;9.6;8.39;
41382;PMS5003;27971;53.902;9.118;2023-02-11T12:17:47;8.86;7.49;
41382;PMS5003;27971;53.902;9.118;2023-02-11T12:19:51;8.75;7.22;
41382;PMS5003;27971;53.902;9.118;2023-02-11T12:21:52;9.44;7.4;
41382;PMS5003;27971;53.902;9.118;2023-02-11T12:23:55;9.43;8.37;
41382;PMS5003;27971;53.902;9.118;2023-02-11T12:25:57;7.67;6.47;
41382;PMS5003;27971;53.902;9.118;2023-02-11T12:28:01;8.8;7.2;
41382;PMS5003;27971;53.902;9.118;2023-02-11T12:30:03;8.05;6.4;
41382;PMS5003;27971;53.902;9.118;2023-02-11T12:32:07;8.27;6.44;
41382;PMS5003;27971;53.902;9.118;2023-02-11T12:34:13;10.17;6.68;
41382;PMS5003;27971;53.902;9.118;2023-02-11T12:36:12;8.37;6.69;
41382;PMS5003;27971;53.902;9.118;2023-02-11T12:38:17;8.24;6.95;
41382;PMS5003;27971;53.902;9.118;2023-02-11T12:40:17;8.29;6.36;
41382;PMS5003;27971;53.902;9.118;2023-02-11T12:42:31;7.76;5.69;
41382;PMS5003;27971;53.902;9.118;2023-02-11T12:44:23;8.39;6.84;
41382;PMS5003;27971;53.902;9.118;2023-02-11T12:46:31;9.92;7.9;
41382;PMS5003;27971;53.902;9.118;2023-02-11T12:48:32;7.91;6.63;
41382;PMS5003;27971;53.902;9.118;2023-02-11T12:50:32;6.66;5.2;